Airfield :
LOGIN :

Register | Disclaimer

   EN    FR    IT 

 










Legend :    VFR   Marginal VFR   IFR   Intensive IFR   Very Intensive IFR
Visi :
Ceiling :
>= 8 km
>= 3000ft
5 to 8 km
1000 to 3000 ft
1500m to 5 km
500 to 1000 ft
800 to 1500m
200 to 500 ft
< 800m
< 200 ft
Symbols :   Thunderstorms  Fog  Heavy snow  Heavy precipitations  Wind > 20 kt
SIGMETs :     Misc.  Thunderstorms  Icing  Turbulence  Mountain Waves  Volcanic Ashes







- Airport Elevation : 400 ft
- IATA code : BNX


LQBK - Banja Luka

CURRENT METAR :
  • 111300Z 25005KT 220V290 9999 FEW043 08/M01 Q1017 NOSIG

EXPIRED METARs :
  • 111230Z 26006KT 9999 FEW043 08/M01 Q1017 NOSIG
  • 111200Z 24006KT 210V280 9999 FEW043 08/M01 Q1017 NOSIG
  • 111130Z 24007KT 200V280 CAVOK 08/M01 Q1017 NOSIG
  • 111100Z 25005KT 220V290 CAVOK 08/M01 Q1017 NOSIG
  • 111030Z 21005KT CAVOK 07/01 Q1017 NOSIG

TAF TAF LQBK
Valid from the 11 at 12:00 until the 12 at 12:00 UTC


111100Z 1112/1212 30005KT CAVOK TX08/1113Z TNM02/1205Z
PROB30
TEMPO 1205/1208 3000 BR
No reported NOTAMs for that airfield.



MET'MAP, your aeronautical weather chart ! - Copyright ORBIFLY December 2007 - Disclaimer

ORBIFLY MET'MAP TEAM :

Programming & Development : Alexandra Zaïnal
Concept & Development : Baudouin d'Aumeries
Co-Development & Prog : Marc-Olivier Méhu
Technical & hardware support : Manuel Goepfert

Contact : metmap@orbifly.com




SOURCES & CREDITS :

   NOAA